Time;durP1;ratioP1;P1;durP2;ratioP2;P2;SDS_P1;SDS_P2;PMS_P1;PMS_P2;Temp;Humidity;BMP_temperature;BMP_pressure;BME280_temperature;BME280_humidity;BME280_pressure;Samples;Min_cycle;Max_cycle;Signal;HPM_P1;HPM_P2
2022/01/22 00:00:29;;;;;;;22.13;2.75;;;6.10;99.90;;;;;;5042353;28;20048;-66
2022/01/22 00:02:55;;;;;;;22.45;2.50;;;6.10;99.90;;;;;;5043481;28;20044;-66
2022/01/22 00:05:22;;;;;;;25.90;2.55;;;6.10;99.90;;;;;;5043330;28;20048;-66
2022/01/22 00:07:48;;;;;;;29.80;2.90;;;6.10;99.90;;;;;;5044550;28;20481;-66
2022/01/22 00:10:16;;;;;;;26.92;3.08;;;6.20;99.90;;;;;;5037848;28;20037;-66
2022/01/22 00:15:18;;;;;;;29.95;2.83;;;6.20;99.90;;;;;;5045820;28;20430;-66
2022/01/22 00:17:45;;;;;;;33.63;2.97;;;6.10;99.90;;;;;;5043433;28;20493;-66
2022/01/22 00:20:13;;;;;;;26.00;2.53;;;6.10;99.90;;;;;;5039080;28;20033;-66
2022/01/22 00:22:39;;;;;;;27.33;2.47;;;6.10;99.90;;;;;;5039765;28;20060;-66
2022/01/22 00:25:08;;;;;;;25.67;2.47;;;6.10;99.90;;;;;;5042855;28;20067;-66
2022/01/22 00:27:36;;;;;;;17.33;2.13;;;6.10;99.90;;;;;;5037966;28;20037;-66
2022/01/22 00:30:06;;;;;;;20.63;2.00;;;6.10;99.90;;;;;;5041696;28;20095;-66
2022/01/22 00:32:32;;;;;;;21.92;2.05;;;6.20;99.90;;;;;;5041242;28;20054;-66
2022/01/22 00:34:57;;;;;;;17.65;2.50;;;6.20;99.90;;;;;;5041105;28;20517;-66
2022/01/22 00:37:23;;;;;;;19.98;1.98;;;6.20;99.90;;;;;;5041139;28;20504;-66
2022/01/22 00:39:49;;;;;;;16.00;2.20;;;6.20;99.90;;;;;;5043119;28;20080;-66
2022/01/22 00:42:16;;;;;;;20.42;2.55;;;6.10;99.90;;;;;;5040558;28;20139;-66
2022/01/22 00:44:43;;;;;;;20.05;2.03;;;6.20;99.90;;;;;;5040978;28;20687;-66
2022/01/22 00:47:09;;;;;;;19.95;2.00;;;6.20;99.90;;;;;;5044250;28;20036;-66
2022/01/22 00:49:36;;;;;;;26.73;2.83;;;6.20;99.90;;;;;;5042205;28;20163;-66
2022/01/22 00:52:04;;;;;;;23.52;2.22;;;6.20;99.90;;;;;;5039153;28;20062;-66
2022/01/22 00:54:30;;;;;;;16.20;2.10;;;6.20;99.90;;;;;;5042906;28;20074;-66
2022/01/22 00:56:56;;;;;;;29.80;3.00;;;6.20;99.90;;;;;;5038712;28;20040;-66
2022/01/22 00:59:22;;;;;;;25.98;2.50;;;6.20;99.90;;;;;;5040848;28;20569;-66
2022/01/22 01:01:47;;;;;;;27.35;2.20;;;6.20;99.90;;;;;;5042467;28;20044;-66
2022/01/22 01:04:13;;;;;;;28.75;3.28;;;6.20;99.90;;;;;;5040896;28;20049;-66
2022/01/22 01:06:39;;;;;;;27.30;3.15;;;6.30;99.90;;;;;;5040972;28;20034;-66
2022/01/22 01:09:07;;;;;;;30.67;2.42;;;6.30;99.90;;;;;;5037490;28;20130;-66
2022/01/22 01:11:38;;;;;;;25.88;2.38;;;6.30;99.90;;;;;;5058263;28;20096;-66
2022/01/22 01:14:06;;;;;;;17.63;2.03;;;6.30;99.90;;;;;;5040611;28;20047;-66
2022/01/22 01:16:55;;;;;;;29.25;2.40;;;6.30;99.90;;;;;;5040831;28;20072;-66
2022/01/22 01:33:12;;;;;;;23.48;2.38;;;6.20;99.90;;;;;;5041167;28;20401;-66
2022/01/22 01:35:39;;;;;;;21.90;2.53;;;6.20;99.90;;;;;;5037491;28;20049;-66
2022/01/22 01:38:07;;;;;;;22.27;2.53;;;6.30;99.90;;;;;;5040843;28;20052;-66
2022/01/22 01:40:36;;;;;;;29.95;2.72;;;6.30;99.90;;;;;;5042805;28;20042;-66
2022/01/22 01:43:14;;;;;;;26.50;2.58;;;6.30;99.90;;;;;;5038671;28;20204;-66
2022/01/22 01:45:40;;;;;;;22.80;2.40;;;6.30;99.90;;;;;;5025333;28;20064;-66
2022/01/22 01:48:15;;;;;;;23.70;2.67;;;6.30;99.90;;;;;;5043280;28;20045;-66
2022/01/22 01:50:42;;;;;;;19.17;2.10;;;6.30;99.90;;;;;;5041680;28;20128;-66
2022/01/22 01:53:18;;;;;;;18.77;2.00;;;6.30;99.90;;;;;;5038364;28;20080;-66
2022/01/22 01:55:51;;;;;;;28.27;2.80;;;6.30;99.90;;;;;;5041561;28;20079;-66
2022/01/22 01:58:18;;;;;;;23.65;2.47;;;6.40;99.90;;;;;;5042898;28;20037;-66
2022/01/22 02:00:44;;;;;;;15.27;1.75;;;6.30;99.90;;;;;;5038105;28;20053;-66
2022/01/22 02:03:12;;;;;;;26.45;2.38;;;6.30;99.90;;;;;;5042402;28;20037;-66
2022/01/22 02:05:38;;;;;;;20.42;2.00;;;6.30;99.90;;;;;;5039778;28;20036;-66
2022/01/22 02:08:06;;;;;;;15.55;2.83;;;6.30;99.90;;;;;;5038017;28;20041;-66
2022/01/22 02:10:35;;;;;;;15.98;2.45;;;6.30;99.90;;;;;;5024354;28;20052;-66
2022/01/22 02:24:00;;;;;;;15.07;1.35;;;6.40;99.90;;;;;;5039407;28;20065;-66
2022/01/22 02:26:28;;;;;;;14.27;1.60;;;6.30;99.90;;;;;;5040477;28;20049;-66
2022/01/22 02:28:54;;;;;;;16.35;1.88;;;6.40;99.90;;;;;;5038189;28;20036;-66
2022/01/22 02:31:44;;;;;;;15.45;1.85;;;6.30;99.90;;;;;;5044200;28;20454;-66
2022/01/22 02:34:37;;;;;;;15.95;1.60;;;6.40;99.90;;;;;;5040138;28;20149;-66
2022/01/22 02:37:11;;;;;;;14.07;1.48;;;6.40;99.90;;;;;;5036541;28;20049;-66
2022/01/22 02:39:41;;;;;;;11.95;1.55;;;6.40;99.90;;;;;;5039165;28;20041;-66
2022/01/22 02:42:07;;;;;;;17.52;1.65;;;6.40;99.90;;;;;;5039920;28;20393;-66
2022/01/22 02:44:43;;;;;;;11.00;1.42;;;6.40;99.90;;;;;;5038890;28;20025;-66
2022/01/22 02:47:08;;;;;;;9.27;1.60;;;6.40;99.90;;;;;;5038397;28;20044;-66
2022/01/22 02:49:35;;;;;;;10.70;1.70;;;6.40;99.90;;;;;;5042555;28;20037;-66
2022/01/22 02:52:07;;;;;;;14.48;1.60;;;6.40;99.90;;;;;;5039543;28;20037;-66
2022/01/22 02:54:34;;;;;;;9.05;1.40;;;6.50;99.90;;;;;;5041501;28;20228;-66
2022/01/22 02:57:00;;;;;;;9.52;1.00;;;6.50;99.90;;;;;;5037934;28;20045;-66
2022/01/22 02:59:25;;;;;;;6.45;0.90;;;6.50;99.90;;;;;;5042071;28;20044;-66
2022/01/22 03:01:52;;;;;;;7.38;0.80;;;6.50;99.90;;;;;;5035791;28;20032;-66
2022/01/22 03:04:18;;;;;;;4.60;1.00;;;6.50;99.90;;;;;;5039991;28;20033;-66
2022/01/22 03:06:46;;;;;;;5.75;0.57;;;6.50;99.90;;;;;;5037207;28;20319;-66
2022/01/22 03:09:14;;;;;;;8.57;1.08;;;6.50;99.90;;;;;;5037894;28;20139;-66
2022/01/22 03:11:59;;;;;;;8.23;0.77;;;6.50;99.90;;;;;;5038849;28;20076;-66
2022/01/22 03:20:02;;;;;;;9.98;1.33;;;6.50;99.90;;;;;;5036626;28;21237;-66
2022/01/22 03:22:52;;;;;;;10.50;1.02;;;6.50;99.90;;;;;;5037751;28;20033;-66
2022/01/22 03:27:59;;;;;;;11.52;1.40;;;6.50;99.90;;;;;;5052793;28;20049;-66
2022/01/22 03:30:25;;;;;;;6.68;0.88;;;6.50;99.90;;;;;;5036918;28;20116;-66
2022/01/22 03:32:53;;;;;;;9.98;1.30;;;6.50;99.90;;;;;;5037953;28;20186;-66
2022/01/22 03:37:51;;;;;;;7.00;0.90;;;6.50;99.90;;;;;;5034984;28;20064;-66
2022/01/22 03:40:21;;;;;;;5.28;0.88;;;6.50;99.90;;;;;;5038393;28;20049;-66
2022/01/22 03:42:47;;;;;;;7.45;0.93;;;6.50;99.90;;;;;;5038326;28;20044;-66
2022/01/22 03:45:13;;;;;;;9.63;0.93;;;6.40;99.90;;;;;;5036990;28;20099;-66
2022/01/22 03:47:39;;;;;;;7.55;1.08;;;6.50;99.90;;;;;;5036335;28;20775;-66
2022/01/22 03:50:07;;;;;;;10.63;1.20;;;6.40;99.90;;;;;;5037438;28;20046;-66
2022/01/22 03:52:32;;;;;;;10.25;1.05;;;6.50;99.90;;;;;;5037820;28;20509;-66
2022/01/22 03:54:58;;;;;;;5.13;0.90;;;6.40;99.90;;;;;;5038642;28;20128;-66
2022/01/22 03:57:24;;;;;;;5.57;1.25;;;6.50;99.90;;;;;;5046360;28;20141;-66
2022/01/22 03:59:53;;;;;;;6.18;1.10;;;6.40;99.90;;;;;;5038849;28;20033;-66
2022/01/22 04:05:05;;;;;;;8.13;1.58;;;6.40;99.90;;;;;;5050297;28;20044;-66
2022/01/22 04:10:00;;;;;;;7.55;1.17;;;6.40;99.90;;;;;;5036854;28;20072;-66
2022/01/22 04:13:12;;;;;;;7.28;1.35;;;6.40;99.90;;;;;;5038930;28;20033;-66
2022/01/22 04:15:18;;;;;;;9.93;1.08;;;6.30;99.90;;;;;;5044713;28;20092;-66
2022/01/22 04:26:06;;;;;;;4.93;1.15;;;6.30;99.90;;;;;;5040376;28;20175;-66
2022/01/22 04:28:32;;;;;;;6.53;1.00;;;6.30;99.90;;;;;;5036568;28;20045;-66
2022/01/22 04:30:57;;;;;;;9.48;1.00;;;6.30;99.90;;;;;;5037545;28;20049;-66
2022/01/22 04:33:23;;;;;;;4.43;0.85;;;6.30;99.90;;;;;;5045692;28;20041;-66
2022/01/22 04:35:49;;;;;;;5.57;0.80;;;6.40;99.90;;;;;;5041910;28;20071;-66
2022/01/22 04:38:15;;;;;;;6.75;0.80;;;6.30;99.90;;;;;;5042703;28;20053;-66
2022/01/22 04:40:40;;;;;;;1.50;0.60;;;6.30;99.90;;;;;;5040771;28;20049;-66
2022/01/22 04:43:06;;;;;;;5.53;0.77;;;6.40;99.90;;;;;;5041846;28;20535;-66
2022/01/22 04:46:07;;;;;;;8.30;1.05;;;6.40;99.90;;;;;;5040159;28;20034;-66
2022/01/22 04:49:05;;;;;;;5.75;1.23;;;6.30;99.90;;;;;;5039174;28;20052;-66
2022/01/22 04:56:59;;;;;;;5.90;1.08;;;6.40;99.90;;;;;;5039584;28;20307;-66
2022/01/22 04:59:25;;;;;;;9.95;1.55;;;6.30;99.90;;;;;;5040713;28;20037;-66
2022/01/22 05:01:50;;;;;;;6.85;1.00;;;6.30;99.90;;;;;;5045364;28;20052;-66
2022/01/22 05:04:16;;;;;;;7.40;1.20;;;6.30;99.90;;;;;;5042639;28;20033;-66
2022/01/22 05:06:42;;;;;;;7.05;0.70;;;6.30;99.90;;;;;;5039922;28;20041;-66
2022/01/22 05:09:07;;;;;;;5.38;0.80;;;6.30;99.90;;;;;;5042292;28;20505;-66
2022/01/22 05:11:33;;;;;;;5.22;1.02;;;6.30;99.90;;;;;;5045562;28;20052;-66
2022/01/22 05:13:59;;;;;;;6.25;0.85;;;6.40;99.90;;;;;;5041916;28;20036;-66
2022/01/22 05:16:25;;;;;;;7.53;0.80;;;6.30;99.90;;;;;;5039660;28;20033;-66
2022/01/22 05:19:02;;;;;;;5.00;0.80;;;6.30;99.90;;;;;;5041582;28;20042;-66
2022/01/22 05:21:30;;;;;;;4.72;1.00;;;6.30;99.90;;;;;;5040933;28;20379;-66
2022/01/22 05:24:00;;;;;;;3.95;0.70;;;6.30;99.90;;;;;;5038423;28;20088;-66
2022/01/22 05:37:04;;;;;;;6.10;0.98;;;6.30;99.90;;;;;;5041873;28;20068;-66
2022/01/22 05:39:31;;;;;;;5.97;0.80;;;6.40;99.90;;;;;;5043066;28;20095;-66
2022/01/22 05:42:01;;;;;;;6.32;0.90;;;6.40;99.90;;;;;;5041453;28;20507;-66
2022/01/22 05:44:29;;;;;;;3.95;1.23;;;6.40;99.90;;;;;;5039582;28;20044;-66
2022/01/22 05:46:58;;;;;;;8.00;1.02;;;6.40;99.90;;;;;;5037424;28;20121;-66
2022/01/22 05:49:26;;;;;;;5.63;1.15;;;6.30;99.90;;;;;;5040134;28;20041;-66
2022/01/22 05:51:54;;;;;;;9.20;1.48;;;6.40;99.90;;;;;;5039827;28;20068;-66
2022/01/22 05:59:39;;;;;;;8.38;1.25;;;6.30;99.90;;;;;;5039323;28;20000;-66
2022/01/22 06:02:14;;;;;;;7.03;1.20;;;6.30;99.90;;;;;;5039549;28;20086;-66
2022/01/22 06:04:41;;;;;;;7.75;1.30;;;6.30;99.90;;;;;;5041827;28;20148;-66
2022/01/22 06:07:08;;;;;;;5.35;1.08;;;6.30;99.90;;;;;;5036700;28;20041;-66
2022/01/22 06:09:38;;;;;;;5.40;1.30;;;6.30;99.90;;;;;;5038743;28;20049;-66
2022/01/22 06:14:34;;;;;;;7.80;1.48;;;6.40;99.90;;;;;;5047686;28;20037;-67
2022/01/22 06:17:00;;;;;;;5.38;1.10;;;6.30;99.90;;;;;;5045705;28;20061;-67
2022/01/22 06:19:26;;;;;;;6.22;1.42;;;6.30;99.90;;;;;;5038745;28;20041;-67
2022/01/22 06:21:52;;;;;;;11.95;1.50;;;6.40;99.90;;;;;;5043510;28;20044;-66
2022/01/22 06:24:18;;;;;;;12.88;2.33;;;6.40;99.90;;;;;;5041880;28;20025;-66
2022/01/22 06:26:45;;;;;;;11.00;1.95;;;6.40;99.90;;;;;;5041356;28;20409;-67
2022/01/22 06:29:11;;;;;;;8.45;1.77;;;6.40;99.90;;;;;;5039597;28;20055;-66
2022/01/22 06:31:37;;;;;;;10.38;1.83;;;6.40;99.90;;;;;;5044370;28;20490;-66
2022/01/22 06:34:04;;;;;;;13.93;2.30;;;6.30;99.90;;;;;;5038369;28;20395;-66
2022/01/22 06:36:30;;;;;;;10.52;2.33;;;6.30;99.90;;;;;;5039962;28;20060;-66
2022/01/22 06:38:58;;;;;;;9.43;2.47;;;6.40;99.90;;;;;;5037415;28;20041;-66
2022/01/22 06:44:09;;;;;;;10.27;2.65;;;6.30;99.90;;;;;;5035379;28;20460;-66
2022/01/22 06:46:35;;;;;;;8.65;2.20;;;6.40;99.90;;;;;;5039647;28;20044;-66
2022/01/22 06:49:01;;;;;;;7.63;2.50;;;6.30;99.90;;;;;;5039647;28;20064;-66
2022/01/22 06:51:27;;;;;;;6.13;2.00;;;6.30;99.90;;;;;;5043138;28;20111;-66
2022/01/22 06:53:54;;;;;;;5.43;2.00;;;6.40;99.90;;;;;;5035600;28;20045;-66
2022/01/22 06:56:21;;;;;;;5.18;2.00;;;6.30;99.90;;;;;;5036659;28;20037;-66
2022/01/22 06:58:48;;;;;;;6.30;1.48;;;6.30;99.90;;;;;;5039081;28;20033;-66
2022/01/22 07:01:15;;;;;;;3.75;1.30;;;6.30;99.90;;;;;;5038985;28;20059;-66
2022/01/22 07:03:41;;;;;;;3.97;1.50;;;6.30;99.90;;;;;;5039490;28;20057;-66
2022/01/22 07:06:06;;;;;;;3.97;1.40;;;6.30;99.90;;;;;;5040820;28;20051;-66
2022/01/22 07:08:32;;;;;;;7.30;1.52;;;6.30;99.90;;;;;;5038166;28;20029;-66
2022/01/22 07:10:58;;;;;;;7.30;1.20;;;6.30;99.90;;;;;;5041989;28;20029;-66
2022/01/22 07:13:23;;;;;;;3.28;1.35;;;6.30;99.90;;;;;;5037258;28;20543;-66
2022/01/22 07:15:49;;;;;;;5.50;1.13;;;6.30;99.90;;;;;;5037075;28;20132;-66
2022/01/22 07:18:15;;;;;;;3.22;1.40;;;6.30;99.90;;;;;;5038759;28;20430;-66
2022/01/22 07:20:42;;;;;;;116.32;79.53;;;6.20;99.90;;;;;;5039244;28;20195;-66
2022/01/22 07:25:41;;;;;;;6.68;1.25;;;6.30;99.90;;;;;;5052741;28;20050;-66
2022/01/22 07:28:07;;;;;;;10.32;1.67;;;6.30;99.90;;;;;;5039259;28;20038;-66
2022/01/22 07:30:33;;;;;;;3.50;1.25;;;6.20;99.90;;;;;;5039020;28;20456;-67
2022/01/22 07:32:59;;;;;;;7.65;1.40;;;6.20;99.90;;;;;;5037595;28;20127;-67
2022/01/22 07:35:25;;;;;;;6.60;1.40;;;6.20;99.90;;;;;;5038989;28;20468;-65
2022/01/22 07:37:50;;;;;;;4.97;1.27;;;6.20;99.90;;;;;;5038254;28;20057;-65
2022/01/22 07:40:16;;;;;;;3.70;1.35;;;6.20;99.90;;;;;;5035585;28;20111;-66
2022/01/22 07:42:42;;;;;;;5.32;1.00;;;6.20;99.90;;;;;;5036207;28;20043;-66
2022/01/22 07:45:09;;;;;;;2.72;0.90;;;6.20;99.90;;;;;;5035487;28;20045;-66
2022/01/22 07:47:36;;;;;;;6.32;1.05;;;6.10;99.90;;;;;;5041571;28;20033;-66
2022/01/22 07:50:03;;;;;;;4.32;0.82;;;6.10;99.90;;;;;;5036554;28;20057;-66
2022/01/22 07:52:29;;;;;;;6.25;1.13;;;6.10;99.90;;;;;;5040351;28;20037;-66
2022/01/22 07:54:55;;;;;;;6.10;1.27;;;6.10;99.90;;;;;;5038195;28;20037;-66
2022/01/22 07:57:21;;;;;;;4.85;1.08;;;6.10;99.90;;;;;;5039280;28;20055;-66
2022/01/22 07:59:46;;;;;;;7.03;1.17;;;6.10;99.90;;;;;;5038144;28;20044;-66
2022/01/22 08:02:13;;;;;;;4.55;1.00;;;6.10;99.90;;;;;;5037657;28;20116;-66
2022/01/22 08:04:39;;;;;;;5.15;1.17;;;6.10;99.90;;;;;;5035144;28;20041;-66
2022/01/22 08:07:05;;;;;;;5.78;0.80;;;6.10;99.90;;;;;;5037905;28;20543;-66
2022/01/22 08:09:31;;;;;;;7.80;1.10;;;6.10;99.90;;;;;;5038490;28;20116;-66
2022/01/22 08:11:57;;;;;;;4.35;0.80;;;6.10;99.90;;;;;;5036546;28;20041;-66
2022/01/22 08:14:23;;;;;;;5.20;0.90;;;6.10;99.90;;;;;;5040831;28;20056;-66
2022/01/22 08:16:49;;;;;;;4.82;0.88;;;6.10;99.90;;;;;;5039969;28;20501;-66
2022/01/22 08:19:17;;;;;;;8.02;0.90;;;6.10;99.90;;;;;;5042332;28;20132;-66
2022/01/22 08:21:44;;;;;;;4.80;1.10;;;6.10;99.90;;;;;;5043227;28;20072;-66
2022/01/22 08:24:11;;;;;;;6.15;1.10;;;6.10;99.90;;;;;;5042379;28;20133;-66
2022/01/22 08:26:43;;;;;;;7.13;1.00;;;6.10;99.90;;;;;;5042169;28;20095;-66
2022/01/22 08:29:09;;;;;;;3.60;1.02;;;6.10;99.90;;;;;;5045853;28;20106;-66
2022/01/22 08:36:47;;;;;;;6.57;1.00;;;6.10;99.90;;;;;;5038308;28;20088;-66
2022/01/22 08:39:16;;;;;;;7.38;1.05;;;6.20;99.90;;;;;;5043697;28;20065;-66
2022/01/22 08:41:42;;;;;;;9.02;1.30;;;6.20;99.90;;;;;;5035161;28;20041;-66
2022/01/22 08:44:08;;;;;;;6.05;1.42;;;6.20;99.90;;;;;;5045623;28;20123;-66
2022/01/22 08:46:34;;;;;;;10.93;1.52;;;6.20;99.90;;;;;;5042068;28;20041;-66
2022/01/22 08:49:01;;;;;;;5.22;1.10;;;6.20;99.90;;;;;;5043782;28;20045;-66
2022/01/22 08:51:27;;;;;;;7.15;1.15;;;6.20;99.90;;;;;;5044499;28;20033;-66
2022/01/22 08:53:55;;;;;;;11.35;1.50;;;6.20;99.90;;;;;;5041104;28;20036;-66
2022/01/22 08:56:21;;;;;;;7.88;1.30;;;6.20;99.90;;;;;;5041794;28;20049;-65
2022/01/22 08:58:47;;;;;;;11.35;1.50;;;6.30;99.90;;;;;;5041729;28;20119;-65
2022/01/22 09:01:13;;;;;;;47.75;29.60;;;6.30;99.90;;;;;;5041770;28;20485;-65
2022/01/22 09:03:39;;;;;;;41.97;26.05;;;6.20;99.90;;;;;;5043046;28;20061;-65
2022/01/22 09:06:06;;;;;;;10.00;3.72;;;6.30;99.90;;;;;;5041560;28;20041;-65
2022/01/22 09:08:33;;;;;;;12.32;3.00;;;6.30;99.90;;;;;;5049163;28;20037;-65
2022/01/22 09:10:58;;;;;;;8.95;2.60;;;6.30;99.90;;;;;;5029553;28;20116;-65
2022/01/22 09:13:25;;;;;;;10.20;2.25;;;6.30;99.90;;;;;;5040362;28;20482;-65
2022/01/22 09:15:53;;;;;;;8.88;2.08;;;6.30;99.90;;;;;;5039594;28;20076;-65
2022/01/22 09:18:19;;;;;;;13.10;2.47;;;6.30;99.90;;;;;;5053036;28;20183;-65
2022/01/22 09:21:02;;;;;;;9.00;2.38;;;6.30;99.90;;;;;;5046442;28;20040;-65
2022/01/22 09:23:32;;;;;;;11.80;2.33;;;6.40;99.90;;;;;;5037533;28;20039;-66
2022/01/22 09:25:58;;;;;;;11.10;2.28;;;6.40;99.90;;;;;;5045010;28;20143;-66
2022/01/22 09:28:25;;;;;;;10.38;2.00;;;6.40;99.90;;;;;;5043812;28;20532;-66
2022/01/22 09:30:51;;;;;;;13.15;2.13;;;6.40;99.90;;;;;;5041706;28;20047;-66
2022/01/22 09:33:17;;;;;;;15.65;2.33;;;6.40;99.90;;;;;;5044380;28;20115;-66
2022/01/22 09:35:43;;;;;;;13.60;2.35;;;6.40;99.90;;;;;;5037926;28;20572;-66
2022/01/22 09:38:09;;;;;;;8.93;1.60;;;6.40;99.90;;;;;;5043568;28;20045;-66
2022/01/22 09:40:35;;;;;;;57.60;34.55;;;6.50;99.90;;;;;;5045766;28;20111;-66
2022/01/22 09:43:01;;;;;;;13.32;5.20;;;6.50;99.90;;;;;;5046076;28;20454;-66
2022/01/22 09:45:29;;;;;;;8.18;2.20;;;6.50;99.90;;;;;;5043434;28;20239;-66
2022/01/22 09:47:58;;;;;;;11.15;2.17;;;6.50;99.90;;;;;;5041184;28;20094;-66
2022/01/22 09:50:26;;;;;;;11.65;2.00;;;6.50;99.90;;;;;;5044756;28;20060;-66
2022/01/22 09:52:52;;;;;;;15.20;2.65;;;6.50;99.90;;;;;;5043627;28;20107;-66
2022/01/22 09:55:18;;;;;;;12.27;2.65;;;6.60;99.90;;;;;;5044406;28;20044;-66
2022/01/22 09:57:45;;;;;;;13.25;2.40;;;6.50;99.90;;;;;;5041610;28;20086;-66
2022/01/22 10:00:13;;;;;;;15.98;2.25;;;6.60;99.90;;;;;;5040429;28;20072;-66
2022/01/22 10:02:48;;;;;;;12.65;2.60;;;6.60;99.90;;;;;;5045448;28;20075;-66
2022/01/22 10:05:38;;;;;;;16.38;2.28;;;6.60;99.90;;;;;;5039856;28;20065;-66
2022/01/22 10:08:25;;;;;;;12.68;2.13;;;6.60;99.90;;;;;;5036398;28;20056;-66
2022/01/22 10:10:52;;;;;;;12.80;3.05;;;6.60;99.90;;;;;;5042728;28;20033;-66
2022/01/22 10:13:39;;;;;;;13.07;2.22;;;6.60;99.90;;;;;;5019361;28;20049;-66
2022/01/22 10:16:24;;;;;;;15.23;1.92;;;6.70;99.90;;;;;;5035938;28;20497;-66
2022/01/22 10:19:11;;;;;;;8.10;2.25;;;6.70;99.90;;;;;;5060389;28;20067;-66
2022/01/22 10:21:38;;;;;;;16.13;2.47;;;6.70;99.90;;;;;;5041144;28;20044;-66
2022/01/22 10:24:46;;;;;;;11.93;2.05;;;6.80;99.90;;;;;;5035822;28;20042;-66
2022/01/22 10:27:23;;;;;;;11.32;1.88;;;6.80;99.90;;;;;;5043925;28;20052;-66
2022/01/22 10:29:58;;;;;;;14.57;4.93;;;6.80;99.90;;;;;;5039761;28;20103;-66
2022/01/22 10:32:42;;;;;;;37.65;20.23;;;6.80;99.90;;;;;;5042635;28;20512;-66
2022/01/22 10:35:16;;;;;;;14.48;1.98;;;6.80;99.90;;;;;;5036435;28;20037;-66
2022/01/22 10:37:43;;;;;;;12.10;1.73;;;6.90;99.90;;;;;;5036149;28;20061;-66
2022/01/22 10:40:28;;;;;;;16.27;1.98;;;6.90;99.90;;;;;;5044094;28;20355;-66
2022/01/22 10:43:32;;;;;;;13.93;1.67;;;6.90;99.90;;;;;;5036249;28;20513;-66
2022/01/22 10:46:01;;;;;;;13.52;1.70;;;6.90;99.90;;;;;;5046121;28;20033;-66
2022/01/22 10:48:27;;;;;;;14.88;2.20;;;6.90;99.90;;;;;;5042966;28;20053;-66
2022/01/22 10:51:11;;;;;;;12.30;1.83;;;6.90;99.90;;;;;;5039307;28;20091;-66
2022/01/22 10:53:39;;;;;;;10.25;1.95;;;6.90;99.90;;;;;;5036698;28;20041;-67
2022/01/22 10:56:06;;;;;;;12.52;1.90;;;6.90;99.90;;;;;;5034131;28;20045;-66
2022/01/22 10:58:34;;;;;;;16.38;2.10;;;6.90;99.90;;;;;;5041736;28;20033;-66
2022/01/22 11:01:03;;;;;;;14.82;1.60;;;6.90;99.90;;;;;;5042132;28;20056;-66
2022/01/22 11:03:29;;;;;;;10.15;1.58;;;6.90;99.90;;;;;;5040925;28;20060;-66
2022/01/22 11:05:57;;;;;;;13.50;2.10;;;7.00;99.90;;;;;;5036391;28;20091;-66
2022/01/22 11:08:23;;;;;;;15.25;2.45;;;7.00;99.90;;;;;;5053333;28;20049;-66
2022/01/22 11:10:49;;;;;;;12.32;2.50;;;7.10;99.90;;;;;;5039263;28;20044;-66
2022/01/22 11:13:15;;;;;;;13.30;3.03;;;7.10;99.90;;;;;;5036522;28;20048;-66
2022/01/22 11:15:48;;;;;;;11.35;2.50;;;7.00;99.90;;;;;;5041802;28;20037;-66
2022/01/22 11:18:17;;;;;;;13.43;2.47;;;7.10;99.90;;;;;;5037354;28;20037;-66
2022/01/22 11:20:45;;;;;;;10.00;2.28;;;7.10;99.90;;;;;;5040712;28;20465;-66
2022/01/22 11:23:12;;;;;;;17.20;3.10;;;7.10;99.90;;;;;;5054463;28;20544;-66
2022/01/22 11:25:39;;;;;;;13.23;2.50;;;7.10;99.90;;;;;;5043257;28;20076;-66
2022/01/22 11:28:05;;;;;;;10.43;2.60;;;7.10;99.90;;;;;;5033398;28;20160;-66
2022/01/22 11:30:33;;;;;;;11.88;2.70;;;7.10;99.90;;;;;;5045208;28;20511;-66
2022/01/22 11:33:03;;;;;;;15.52;3.10;;;7.00;99.90;;;;;;5039641;28;20041;-66
2022/01/22 11:36:11;;;;;;;375.25;307.42;;;7.00;99.90;;;;;;5040310;28;20150;-66
2022/01/22 11:38:39;;;;;;;17.50;5.18;;;7.00;99.90;;;;;;5035361;28;20041;-66
2022/01/22 11:41:10;;;;;;;15.52;3.67;;;7.00;99.90;;;;;;5043712;28;20041;-66
2022/01/22 11:44:09;;;;;;;15.13;2.95;;;6.90;99.90;;;;;;5041619;28;20389;-66
2022/01/22 11:46:40;;;;;;;21.95;3.38;;;7.00;99.90;;;;;;5039282;28;20041;-66
2022/01/22 11:49:17;;;;;;;15.57;4.00;;;6.90;99.90;;;;;;5033878;28;20041;-66
2022/01/22 11:51:47;;;;;;;14.68;3.83;;;7.00;99.90;;;;;;5040453;28;20118;-66
2022/01/22 11:54:17;;;;;;;18.20;4.10;;;6.90;99.90;;;;;;5046440;28;20485;-66
2022/01/22 11:56:49;;;;;;;14.45;4.25;;;6.90;99.90;;;;;;5041554;28;20048;-66
2022/01/22 11:59:31;;;;;;;16.85;4.70;;;7.00;99.90;;;;;;5044784;28;20041;-66
2022/01/22 12:02:04;;;;;;;20.90;5.25;;;7.00;99.90;;;;;;5040428;28;20041;-66
2022/01/22 12:04:39;;;;;;;13.77;4.45;;;7.00;99.90;;;;;;5043715;28;20062;-66
2022/01/22 12:07:05;;;;;;;15.30;4.65;;;7.00;99.90;;;;;;5041051;28;20072;-66
2022/01/22 12:09:51;;;;;;;14.77;4.32;;;7.00;99.90;;;;;;5040175;28;20034;-66
2022/01/22 12:15:08;;;;;;;12.07;4.18;;;7.00;99.90;;;;;;5041743;28;20577;-66
2022/01/22 12:17:50;;;;;;;19.17;4.63;;;7.00;99.90;;;;;;5043127;28;20116;-67
2022/01/22 12:23:15;;;;;;;16.35;4.60;;;7.00;99.90;;;;;;5045278;28;20040;-66
2022/01/22 12:25:41;;;;;;;11.80;4.38;;;7.00;99.90;;;;;;5044930;28;20056;-66
2022/01/22 12:28:09;;;;;;;16.05;5.00;;;6.90;99.90;;;;;;5043176;28;20038;-66
2022/01/22 12:30:43;;;;;;;11.85;4.35;;;7.00;99.90;;;;;;5041821;28;20057;-66
2022/01/22 12:33:15;;;;;;;15.68;4.40;;;7.00;99.90;;;;;;5044061;28;20068;-66
2022/01/22 12:35:46;;;;;;;16.92;4.63;;;6.90;99.90;;;;;;5043752;28;20049;-66
2022/01/22 12:38:47;;;;;;;20.83;4.63;;;6.90;99.90;;;;;;5043248;28;20390;-66
2022/01/22 12:41:48;;;;;;;13.02;3.85;;;6.90;99.90;;;;;;5044346;28;20099;-66
2022/01/22 12:46:58;;;;;;;14.93;3.40;;;6.90;99.90;;;;;;5045572;28;20060;-66
2022/01/22 12:49:28;;;;;;;11.45;3.10;;;7.00;99.90;;;;;;5043428;28;20084;-66
2022/01/22 12:51:56;;;;;;;12.70;3.28;;;7.00;99.90;;;;;;5045760;28;20044;-66
2022/01/22 12:54:38;;;;;;;17.30;5.50;;;7.10;99.90;;;;;;5036255;28;20068;-66
2022/01/22 12:57:04;;;;;;;12.43;2.90;;;7.10;99.90;;;;;;5038173;28;20033;-67
2022/01/22 12:59:32;;;;;;;16.48;2.70;;;7.10;99.90;;;;;;5032595;28;20378;-65
2022/01/22 13:01:57;;;;;;;9.48;2.58;;;7.10;99.90;;;;;;5041372;28;20559;-65
2022/01/22 13:04:23;;;;;;;10.63;2.63;;;7.10;99.90;;;;;;5038620;28;20041;-65
2022/01/22 13:06:52;;;;;;;9.80;2.17;;;7.20;99.90;;;;;;5040570;28;20029;-65
2022/01/22 13:09:18;;;;;;;10.88;1.85;;;7.10;99.90;;;;;;5039851;28;20048;-65
2022/01/22 13:11:49;;;;;;;8.00;1.67;;;7.10;99.90;;;;;;5042495;28;20041;-65
2022/01/22 13:14:19;;;;;;;10.75;1.90;;;7.10;99.90;;;;;;5055477;28;20059;-65
2022/01/22 13:16:50;;;;;;;15.80;2.25;;;7.20;99.90;;;;;;5041809;28;20045;-65
2022/01/22 13:19:16;;;;;;;11.63;1.60;;;7.10;99.90;;;;;;5042963;28;20104;-66
2022/01/22 13:21:52;;;;;;;11.52;1.65;;;7.10;99.90;;;;;;5039278;28;20462;-66
2022/01/22 13:24:22;;;;;;;9.73;1.80;;;7.10;99.90;;;;;;5054218;28;20045;-66
2022/01/22 13:26:54;;;;;;;10.93;1.63;;;7.10;99.90;;;;;;5038654;28;20044;-66
2022/01/22 13:29:34;;;;;;;11.13;1.70;;;7.10;99.90;;;;;;5043702;28;20136;-66
2022/01/22 13:32:59;;;;;;;15.98;1.65;;;7.10;99.90;;;;;;5042627;28;20075;-66
2022/01/22 13:49:12;;;;;;;12.13;2.05;;;7.00;99.90;;;;;;5045026;28;20551;-66
2022/01/22 13:51:38;;;;;;;12.93;1.60;;;7.00;99.90;;;;;;5041390;28;20037;-66
2022/01/22 13:54:05;;;;;;;13.40;1.77;;;7.00;99.90;;;;;;5046195;28;20035;-66
2022/01/22 13:56:54;;;;;;;13.63;1.83;;;7.00;99.90;;;;;;5043491;28;20396;-66
2022/01/22 13:59:25;;;;;;;13.43;2.38;;;7.00;99.90;;;;;;5039681;28;20481;-66
2022/01/22 14:02:11;;;;;;;13.65;2.03;;;7.00;99.90;;;;;;5046762;28;20136;-66
2022/01/22 14:05:04;;;;;;;12.30;2.28;;;6.90;99.90;;;;;;5042993;28;20091;-66
2022/01/22 14:07:31;;;;;;;22.35;9.43;;;6.90;99.90;;;;;;5043553;28;20413;-66
2022/01/22 14:10:09;;;;;;;6.35;1.50;;;6.90;99.90;;;;;;5042804;28;20041;-66
2022/01/22 14:12:42;;;;;;;9.50;1.50;;;6.90;99.90;;;;;;5040964;28;20091;-66
2022/01/22 14:15:23;;;;;;;12.27;1.67;;;6.80;99.90;;;;;;5043100;28;20452;-66
2022/01/22 14:18:13;;;;;;;12.75;2.15;;;6.90;99.90;;;;;;5041714;28;20508;-66
2022/01/22 14:20:51;;;;;;;12.95;2.15;;;6.90;99.90;;;;;;5037968;28;20136;-66
2022/01/22 14:23:20;;;;;;;9.55;1.58;;;6.80;99.90;;;;;;5040814;28;20056;-66
2022/01/22 14:26:13;;;;;;;9.15;1.40;;;6.90;99.90;;;;;;5041547;28;20062;-66
2022/01/22 14:28:46;;;;;;;10.18;1.55;;;6.80;99.90;;;;;;5042684;28;20464;-67
2022/01/22 14:31:19;;;;;;;9.10;1.65;;;6.80;99.90;;;;;;5040502;28;20048;-67
2022/01/22 14:33:45;;;;;;;10.02;1.27;;;6.80;99.90;;;;;;5035725;28;20370;-67
2022/01/22 14:36:19;;;;;;;9.65;1.58;;;6.80;99.90;;;;;;5046781;28;20082;-65
2022/01/22 14:38:54;;;;;;;11.25;1.25;;;6.80;99.90;;;;;;5041079;28;20501;-65
2022/01/22 14:46:53;;;;;;;13.45;1.50;;;6.70;99.90;;;;;;5045356;28;20377;-65
2022/01/22 14:49:30;;;;;;;10.30;1.75;;;6.80;99.90;;;;;;5037634;28;20041;-66
2022/01/22 14:51:56;;;;;;;10.13;1.38;;;6.80;99.90;;;;;;5037382;28;20063;-66
2022/01/22 14:54:24;;;;;;;7.78;1.38;;;6.70;99.90;;;;;;5036423;28;20398;-66
2022/01/22 14:56:49;;;;;;;8.23;1.20;;;6.80;99.90;;;;;;5043911;28;20132;-66
2022/01/22 14:59:15;;;;;;;9.75;1.15;;;6.70;99.90;;;;;;5035096;28;20128;-66